createdAt,value
2022-10-25T00:00:58.607Z,12.45
2022-10-25T00:03:26.399Z,12.41
2022-10-25T00:05:54.605Z,12.45
2022-10-25T00:08:22.479Z,12.39
2022-10-25T00:10:50.190Z,12.37
2022-10-25T00:13:17.905Z,12.41
2022-10-25T00:15:45.645Z,12.38
2022-10-25T00:18:14.795Z,12.36
2022-10-25T00:20:42.454Z,12.33
2022-10-25T00:23:10.066Z,12.31
2022-10-25T00:25:37.962Z,12.25
2022-10-25T00:28:06.244Z,12.17
2022-10-25T00:30:34.385Z,12.11
2022-10-25T00:33:02.019Z,12.08
2022-10-25T00:35:31.239Z,12.05
2022-10-25T00:38:00.761Z,11.95
2022-10-25T00:40:28.618Z,11.94
2022-10-25T00:42:56.254Z,11.89
2022-10-25T00:45:25.857Z,11.83
2022-10-25T00:47:57.998Z,11.79
2022-10-25T00:50:40.918Z,11.80
2022-10-25T00:53:12.337Z,11.69
2022-10-25T00:55:45.489Z,11.66
2022-10-25T00:58:18.156Z,11.61
2022-10-25T01:00:46.715Z,11.57
2022-10-25T01:03:15.734Z,11.50
2022-10-25T01:05:45.894Z,11.46
2022-10-25T01:08:14.147Z,11.38
2022-10-25T01:10:42.381Z,11.45
2022-10-25T01:13:10.096Z,11.48
2022-10-25T01:15:45.836Z,11.46
2022-10-25T01:18:18.678Z,11.46
2022-10-25T01:21:22.269Z,11.48
2022-10-25T01:24:15.615Z,11.54
2022-10-25T01:27:00.220Z,11.56
2022-10-25T01:29:52.644Z,11.57
2022-10-25T01:32:29.109Z,11.59
2022-10-25T01:35:04.291Z,11.59
2022-10-25T01:37:42.239Z,11.58
2022-10-25T01:40:19.287Z,11.52
2022-10-25T01:42:54.699Z,11.49
2022-10-25T01:45:28.805Z,11.43
2022-10-25T01:48:04.452Z,11.40
2022-10-25T01:50:34.190Z,11.33
2022-10-25T01:53:01.894Z,11.25
2022-10-25T01:55:36.070Z,11.09
2022-10-25T01:58:14.234Z,11.05
2022-10-25T02:00:54.759Z,11.02
2022-10-25T02:03:31.409Z,11.07
2022-10-25T02:06:14.950Z,11.10
2022-10-25T02:08:48.260Z,11.09
2022-10-25T02:11:25.115Z,11.14
2022-10-25T02:14:01.343Z,11.04
2022-10-25T02:16:33.278Z,10.90
2022-10-25T02:19:05.822Z,11.06
2022-10-25T02:21:36.575Z,11.12
2022-10-25T02:24:08.486Z,11.15
2022-10-25T02:26:37.772Z,11.13
2022-10-25T02:29:07.785Z,11.18
2022-10-25T02:31:37.243Z,11.16
2022-10-25T02:34:06.700Z,11.20
2022-10-25T02:36:34.926Z,11.21
2022-10-25T02:39:03.729Z,11.08
2022-10-25T02:41:31.701Z,11.01
2022-10-25T02:43:59.402Z,10.98
2022-10-25T02:46:27.093Z,10.93
2022-10-25T02:48:54.827Z,10.92
2022-10-25T02:51:23.948Z,10.95
2022-10-25T02:53:51.576Z,10.97
2022-10-25T02:56:21.445Z,10.86
2022-10-25T02:58:51.260Z,10.88
2022-10-25T03:01:21.523Z,10.91
2022-10-25T03:03:49.592Z,10.87
2022-10-25T03:06:18.170Z,10.85
2022-10-25T03:08:47.545Z,10.86
2022-10-25T03:11:17.502Z,10.88
2022-10-25T03:13:45.399Z,10.89
2022-10-25T03:16:13.422Z,10.88
2022-10-25T03:18:40.995Z,10.88
2022-10-25T03:21:08.675Z,10.83
2022-10-25T03:23:36.635Z,10.74
2022-10-25T03:26:06.285Z,10.76
2022-10-25T03:28:33.901Z,10.72
2022-10-25T03:31:01.601Z,10.71
2022-10-25T03:33:32.328Z,10.72
2022-10-25T03:36:00.292Z,10.75
2022-10-25T03:38:27.903Z,10.76
2022-10-25T03:40:55.582Z,10.73
2022-10-25T03:43:24.947Z,10.72
2022-10-25T03:45:52.558Z,10.78
2022-10-25T03:48:20.376Z,10.88
2022-10-25T03:50:48.113Z,10.96
2022-10-25T03:53:15.811Z,10.97
2022-10-25T03:55:43.590Z,11.00
2022-10-25T03:58:11.733Z,10.98
2022-10-25T04:00:40.871Z,10.83
2022-10-25T04:03:10.324Z,10.85
2022-10-25T04:05:38.181Z,10.85
2022-10-25T04:08:06.322Z,10.84
2022-10-25T04:10:34.405Z,10.87
2022-10-25T04:13:02.079Z,10.79
2022-10-25T04:15:29.711Z,10.69
2022-10-25T04:17:58.851Z,10.67
2022-10-25T04:20:26.526Z,10.76
2022-10-25T04:22:56.185Z,10.87
2022-10-25T04:25:24.943Z,10.85
2022-10-25T04:27:52.630Z,10.92
2022-10-25T04:30:20.434Z,10.83
2022-10-25T04:32:48.328Z,10.79
2022-10-25T04:35:17.657Z,10.74
2022-10-25T04:37:45.394Z,10.69
2022-10-25T04:40:13.831Z,10.82
2022-10-25T04:42:41.481Z,10.93
2022-10-25T04:45:10.327Z,11.05
2022-10-25T04:47:38.261Z,11.13
2022-10-25T04:50:07.143Z,11.18
2022-10-25T04:52:36.213Z,11.19
2022-10-25T04:55:04.691Z,11.20
2022-10-25T04:57:32.337Z,11.11
2022-10-25T05:00:00.058Z,11.10
2022-10-25T05:02:27.831Z,11.08
2022-10-25T05:04:55.546Z,11.06
2022-10-25T05:07:23.249Z,10.99
2022-10-25T05:09:52.252Z,10.94
2022-10-25T05:12:20.281Z,10.95
2022-10-25T05:14:47.919Z,10.98
2022-10-25T05:17:15.970Z,11.03
2022-10-25T05:19:43.850Z,11.07
2022-10-25T05:22:11.540Z,11.09
2022-10-25T05:24:39.530Z,11.13
2022-10-25T05:27:08.812Z,11.08
2022-10-25T05:29:36.582Z,11.14
2022-10-25T05:32:04.510Z,11.16
2022-10-25T05:34:32.235Z,11.16
2022-10-25T05:37:00.372Z,11.17
2022-10-25T05:39:28.243Z,11.19
2022-10-25T05:41:56.220Z,11.17
2022-10-25T05:44:25.391Z,11.18
2022-10-25T05:46:53.005Z,11.16
2022-10-25T05:49:20.779Z,11.16
2022-10-25T05:51:48.428Z,11.15
2022-10-25T05:54:16.701Z,11.21
2022-10-25T05:56:44.478Z,11.12
2022-10-25T05:59:14.447Z,11.11
2022-10-25T06:01:45.462Z,11.08
2022-10-25T06:04:14.310Z,11.08
2022-10-25T06:06:43.231Z,11.12
2022-10-25T06:09:11.248Z,11.11
2022-10-25T06:11:39.687Z,11.09
2022-10-25T06:14:07.691Z,11.06
2022-10-25T06:16:38.151Z,11.07
2022-10-25T06:19:07.748Z,11.07
2022-10-25T06:21:35.834Z,11.08
2022-10-25T06:24:04.201Z,11.09
2022-10-25T06:26:32.099Z,11.10
2022-10-25T06:29:01.351Z,11.13
2022-10-25T06:31:46.862Z,11.13
2022-10-25T06:34:15.929Z,11.21
2022-10-25T06:36:44.166Z,11.26
2022-10-25T06:39:13.869Z,11.27
2022-10-25T06:41:42.096Z,11.30
2022-10-25T06:44:10.090Z,11.33
2022-10-25T06:49:28.883Z,11.49
2022-10-25T06:51:56.865Z,11.63
2022-10-25T06:54:26.589Z,11.76
2022-10-25T06:56:54.345Z,11.84
2022-10-25T06:59:22.091Z,11.92
2022-10-25T07:01:50.367Z,11.99
2022-10-25T07:04:18.198Z,11.99
2022-10-25T07:06:50.037Z,11.91
2022-10-25T07:09:20.786Z,11.88
2022-10-25T07:11:48.726Z,11.93
2022-10-25T07:14:16.535Z,11.96
2022-10-25T07:16:44.237Z,11.95
2022-10-25T07:19:11.919Z,11.97
2022-10-25T07:21:39.593Z,12.03
2022-10-25T07:24:11.053Z,12.14
2022-10-25T07:26:40.289Z,12.27
2022-10-25T07:29:08.106Z,12.46
2022-10-25T07:31:38.054Z,12.68
2022-10-25T07:34:06.990Z,12.82
2022-10-25T07:36:35.264Z,13.00
2022-10-25T07:39:03.019Z,13.12
2022-10-25T07:41:32.016Z,13.36
2022-10-25T07:44:00.101Z,13.56
2022-10-25T07:46:27.751Z,13.71
2022-10-25T07:48:55.373Z,13.64
2022-10-25T07:51:23.070Z,13.66
2022-10-25T07:53:51.587Z,13.56
2022-10-25T07:56:23.429Z,13.51
2022-10-25T07:58:53.455Z,13.53
2022-10-25T08:01:23.509Z,13.51
2022-10-25T08:03:51.881Z,13.58
2022-10-25T08:06:20.679Z,13.56
2022-10-25T08:08:48.876Z,13.62
2022-10-25T08:11:17.246Z,13.70
2022-10-25T08:13:46.690Z,13.88
2022-10-25T08:16:16.110Z,14.06
2022-10-25T08:18:44.148Z,14.18
2022-10-25T08:21:12.403Z,14.30
2022-10-25T08:23:40.949Z,14.44
2022-10-25T08:26:08.557Z,14.67
2022-10-25T08:28:36.996Z,14.76
2022-10-25T08:31:04.954Z,14.93
2022-10-25T08:33:34.743Z,15.05
2022-10-25T08:36:09.157Z,15.17
2022-10-25T08:38:37.896Z,15.30
2022-10-25T08:41:10.463Z,15.06
2022-10-25T08:44:08.698Z,14.84
2022-10-25T08:46:40.918Z,14.74
2022-10-25T08:49:17.991Z,14.67
2022-10-25T08:51:48.590Z,14.74
2022-10-25T08:54:25.180Z,14.80
2022-10-25T08:57:14.667Z,14.91
2022-10-25T08:59:46.450Z,15.17
2022-10-25T09:02:21.632Z,15.27
2022-10-25T09:04:51.136Z,15.35
2022-10-25T09:07:49.741Z,15.35
2022-10-25T09:10:29.591Z,15.41
2022-10-25T09:13:08.394Z,15.50
2022-10-25T09:15:54.417Z,15.61
2022-10-25T09:18:31.869Z,15.69
2022-10-25T09:21:06.785Z,15.64
2022-10-25T09:23:36.624Z,15.59
2022-10-25T09:26:10.232Z,15.62
2022-10-25T09:28:52.051Z,15.67
2022-10-25T09:31:24.409Z,15.67
2022-10-25T09:34:01.511Z,15.69
2022-10-25T09:36:38.189Z,15.59
2022-10-25T09:39:15.724Z,15.59
2022-10-25T09:41:47.616Z,15.68
2022-10-25T09:44:21.031Z,15.87
2022-10-25T09:46:55.261Z,15.83
2022-10-25T09:49:28.542Z,15.72
2022-10-25T09:52:03.993Z,15.64
2022-10-25T09:54:36.291Z,15.72
2022-10-25T09:57:04.603Z,15.81
2022-10-25T09:59:32.531Z,15.90
2022-10-25T10:02:02.183Z,15.85
2022-10-25T10:04:35.668Z,16.04
2022-10-25T10:07:12.872Z,15.93
2022-10-25T10:09:45.676Z,15.89
2022-10-25T10:12:19.723Z,15.86
2022-10-25T10:14:54.614Z,15.97
2022-10-25T10:17:23.214Z,15.93
2022-10-25T10:20:12.303Z,15.76
2022-10-25T10:22:46.576Z,15.61
2022-10-25T10:25:17.745Z,15.64
2022-10-25T10:27:48.938Z,15.50
2022-10-25T10:30:38.812Z,15.50
2022-10-25T10:33:09.462Z,15.55
2022-10-25T10:35:38.201Z,15.68
2022-10-25T10:38:22.434Z,15.67
2022-10-25T10:40:55.791Z,15.63
2022-10-25T10:43:29.074Z,15.58
2022-10-25T10:46:03.737Z,15.59
2022-10-25T10:48:41.902Z,15.51
2022-10-25T10:51:31.881Z,15.54
2022-10-25T10:54:13.851Z,15.56
2022-10-25T10:56:41.497Z,15.61
2022-10-25T10:59:30.678Z,15.63
2022-10-25T11:01:58.962Z,15.60
2022-10-25T11:04:26.930Z,15.55
2022-10-25T11:06:54.580Z,15.44
2022-10-25T11:09:26.317Z,15.45
2022-10-25T11:12:07.446Z,15.45
2022-10-25T11:14:35.424Z,15.48
2022-10-25T11:17:09.504Z,15.52
2022-10-25T11:19:52.352Z,15.55
2022-10-25T11:22:43.644Z,15.58
2022-10-25T11:25:22.558Z,15.63
2022-10-25T11:28:07.296Z,15.69
2022-10-25T11:30:43.449Z,15.78
2022-10-25T11:33:29.181Z,15.87
2022-10-25T11:36:09.981Z,15.93
2022-10-25T11:38:52.267Z,15.94
2022-10-25T11:41:32.791Z,15.95
2022-10-25T11:44:22.641Z,15.93
2022-10-25T11:46:58.181Z,16.00
2022-10-25T11:49:40.647Z,16.16
2022-10-25T11:52:25.491Z,16.22
2022-10-25T11:55:05.804Z,16.18
2022-10-25T11:57:46.367Z,16.22
2022-10-25T12:00:18.423Z,16.28
2022-10-25T12:03:00.751Z,16.28
2022-10-25T12:05:35.532Z,16.34
2022-10-25T12:08:19.870Z,16.37
2022-10-25T12:10:51.009Z,16.43
2022-10-25T12:13:23.995Z,16.46
2022-10-25T12:15:55.343Z,16.50
2022-10-25T12:18:26.945Z,16.56
2022-10-25T12:20:55.590Z,16.66
2022-10-25T12:23:26.342Z,16.54
2022-10-25T12:25:58.092Z,16.57
2022-10-25T12:28:33.453Z,16.53
2022-10-25T12:31:11.023Z,16.49
2022-10-25T12:33:42.770Z,16.46
2022-10-25T12:36:16.954Z,16.50
2022-10-25T12:38:44.874Z,16.48
2022-10-25T12:41:20.100Z,16.56
2022-10-25T12:44:00.310Z,16.56
2022-10-25T12:46:43.720Z,16.64
2022-10-25T12:49:27.614Z,16.75
2022-10-25T12:52:07.901Z,16.77
2022-10-25T12:54:58.654Z,16.77
2022-10-25T12:57:33.617Z,16.80
2022-10-25T13:00:11.315Z,16.77
2022-10-25T13:03:04.704Z,16.77
2022-10-25T13:06:10.019Z,16.87
2022-10-25T13:08:40.696Z,16.97
2022-10-25T13:11:10.305Z,17.05
2022-10-25T13:13:41.933Z,17.09
2022-10-25T13:16:11.681Z,17.17
2022-10-25T13:18:43.028Z,17.30
2022-10-25T13:21:12.817Z,17.42
2022-10-25T13:24:02.865Z,17.72
2022-10-25T13:26:49.881Z,17.73
2022-10-25T13:29:47.893Z,17.73
2022-10-25T13:32:19.629Z,17.78
2022-10-25T13:34:48.447Z,17.84
2022-10-25T13:37:49.216Z,17.81
2022-10-25T13:40:28.374Z,17.65
2022-10-25T13:43:02.679Z,17.61
2022-10-25T13:45:42.949Z,17.51
2022-10-25T13:48:21.646Z,17.35
2022-10-25T13:50:54.216Z,17.31
2022-10-25T13:53:26.276Z,17.28
2022-10-25T13:56:01.094Z,17.13
2022-10-25T13:58:45.283Z,17.26
2022-10-25T14:01:58.065Z,17.11
2022-10-25T14:04:40.894Z,17.15
2022-10-25T14:07:51.618Z,17.30
2022-10-25T14:10:27.678Z,17.50
2022-10-25T14:13:03.291Z,17.24
2022-10-25T14:15:40.798Z,17.29
2022-10-25T14:18:18.750Z,17.23
2022-10-25T14:20:50.601Z,17.13
2022-10-25T14:23:22.571Z,17.10
2022-10-25T14:25:54.404Z,17.00
2022-10-25T14:28:24.447Z,17.00
2022-10-25T14:30:55.520Z,16.85
2022-10-25T14:33:26.309Z,16.69
2022-10-25T14:35:58.871Z,16.62
2022-10-25T14:38:28.689Z,16.57
2022-10-25T14:40:58.694Z,16.56
2022-10-25T14:43:30.360Z,16.57
2022-10-25T14:46:04.744Z,16.63
2022-10-25T14:48:33.459Z,16.63
2022-10-25T14:51:09.102Z,16.73
2022-10-25T14:53:58.950Z,16.74
2022-10-25T14:56:31.126Z,16.65
2022-10-25T14:59:00.652Z,16.50
2022-10-25T15:01:28.946Z,16.36
2022-10-25T15:03:59.125Z,16.33
2022-10-25T15:06:30.783Z,16.16
2022-10-25T15:09:37.002Z,16.09
2022-10-25T15:12:07.314Z,15.93
2022-10-25T15:14:36.317Z,15.82
2022-10-25T15:17:05.687Z,15.69
2022-10-25T15:19:33.758Z,15.70
2022-10-25T15:22:16.183Z,15.63
2022-10-25T15:24:45.759Z,15.50
2022-10-25T15:27:27.819Z,15.38
2022-10-25T15:29:56.007Z,15.35
2022-10-25T15:32:26.354Z,15.29
2022-10-25T15:34:55.500Z,15.21
2022-10-25T15:37:26.402Z,15.09
2022-10-25T15:39:55.702Z,15.07
2022-10-25T15:42:25.257Z,15.04
2022-10-25T15:44:53.151Z,15.02
2022-10-25T15:47:31.544Z,14.95
2022-10-25T15:50:00.779Z,14.85
2022-10-25T15:52:30.303Z,14.82
2022-10-25T15:54:58.176Z,14.72
2022-10-25T15:57:27.332Z,14.63
2022-10-25T15:59:55.445Z,14.60
2022-10-25T16:02:26.960Z,14.58
2022-10-25T16:04:55.302Z,14.45
2022-10-25T16:07:23.394Z,14.46
2022-10-25T16:09:52.532Z,14.45
2022-10-25T16:12:24.702Z,14.38
2022-10-25T16:14:53.876Z,14.43
2022-10-25T16:17:21.693Z,14.49
2022-10-25T16:19:49.591Z,14.56
2022-10-25T16:22:18.369Z,14.60
2022-10-25T16:24:46.347Z,14.56
2022-10-25T16:27:16.128Z,14.57
2022-10-25T16:29:44.243Z,14.59
2022-10-25T16:32:12.078Z,14.56
2022-10-25T16:34:42.329Z,14.53
2022-10-25T16:37:11.965Z,14.47
2022-10-25T16:39:39.782Z,14.38
2022-10-25T16:42:28.101Z,14.27
2022-10-25T16:44:55.754Z,14.31
2022-10-25T16:47:23.885Z,14.27
2022-10-25T16:49:52.042Z,14.22
2022-10-25T16:52:20.801Z,14.12
2022-10-25T16:54:48.759Z,14.06
2022-10-25T16:57:16.785Z,14.03
2022-10-25T16:59:46.099Z,13.99
2022-10-25T17:02:18.576Z,13.98
2022-10-25T17:04:46.438Z,13.95
2022-10-25T17:07:14.210Z,13.93
2022-10-25T17:09:43.055Z,13.89
2022-10-25T17:12:11.230Z,13.85
2022-10-25T17:14:39.099Z,13.83
2022-10-25T17:17:08.138Z,13.82
2022-10-25T17:19:36.407Z,13.80
2022-10-25T17:22:04.439Z,13.80
2022-10-25T17:24:36.080Z,13.81
2022-10-25T17:29:36.575Z,13.72
2022-10-25T17:32:04.598Z,13.73
2022-10-25T17:34:33.789Z,13.69
2022-10-25T17:37:03.012Z,13.61
2022-10-25T17:39:30.907Z,13.61
2022-10-25T17:41:59.113Z,13.59
2022-10-25T17:44:27.053Z,13.58
2022-10-25T17:46:56.397Z,13.56
2022-10-25T17:49:26.403Z,13.51
2022-10-25T17:51:56.150Z,13.47
2022-10-25T17:54:24.067Z,13.46
2022-10-25T17:56:55.658Z,13.49
2022-10-25T17:59:23.537Z,13.49
2022-10-25T18:01:51.423Z,13.48
2022-10-25T18:04:19.222Z,13.45
2022-10-25T18:06:46.991Z,13.44
2022-10-25T18:09:16.328Z,13.42
2022-10-25T18:11:45.371Z,13.38
2022-10-25T18:14:13.214Z,13.36
2022-10-25T18:16:41.413Z,13.33
2022-10-25T18:19:13.609Z,13.34
2022-10-25T18:21:41.577Z,13.30
2022-10-25T18:24:09.466Z,13.29
2022-10-25T18:26:38.591Z,13.28
2022-10-25T18:29:06.322Z,13.28
2022-10-25T18:31:34.522Z,13.28
2022-10-25T18:34:04.416Z,13.26
2022-10-25T18:36:32.775Z,13.21
2022-10-25T18:39:00.782Z,13.16
2022-10-25T18:41:31.859Z,13.08
2022-10-25T18:44:02.455Z,13.09
2022-10-25T18:46:31.887Z,13.12
2022-10-25T18:49:00.026Z,13.10
2022-10-25T18:51:29.333Z,13.07
2022-10-25T18:53:58.828Z,12.98
2022-10-25T18:56:27.545Z,13.01
2022-10-25T18:58:56.784Z,12.99
2022-10-25T19:01:32.128Z,12.99
2022-10-25T19:04:01.376Z,13.01
2022-10-25T19:06:29.541Z,13.02
2022-10-25T19:08:57.626Z,13.05
2022-10-25T19:11:25.638Z,13.07
2022-10-25T19:13:54.940Z,13.10
2022-10-25T19:16:23.479Z,13.08
2022-10-25T19:18:53.048Z,13.03
2022-10-25T19:21:22.492Z,12.97
2022-10-25T19:23:54.115Z,12.92
2022-10-25T19:26:23.341Z,12.85
2022-10-25T19:28:57.503Z,12.91
2022-10-25T19:31:27.207Z,12.92
2022-10-25T19:34:00.301Z,12.92
2022-10-25T19:36:29.565Z,12.90
2022-10-25T19:38:57.726Z,12.90
2022-10-25T19:41:26.647Z,12.79
2022-10-25T19:43:56.447Z,12.68
2022-10-25T19:46:24.535Z,12.57
2022-10-25T19:48:52.695Z,12.55
2022-10-25T19:51:22.393Z,12.58
2022-10-25T19:53:51.117Z,12.42
2022-10-25T19:56:21.149Z,12.43
2022-10-25T19:58:49.785Z,12.45
2022-10-25T20:01:20.107Z,12.43
2022-10-25T20:03:50.944Z,12.32
2022-10-25T20:06:24.605Z,12.34
2022-10-25T20:08:53.839Z,12.38
2022-10-25T20:11:23.569Z,12.41
2022-10-25T20:13:54.258Z,12.39
2022-10-25T20:16:22.815Z,12.39
2022-10-25T20:18:50.685Z,12.35
2022-10-25T20:21:21.984Z,12.39
2022-10-25T20:23:55.451Z,12.39
2022-10-25T20:26:26.574Z,12.34
2022-10-25T20:28:55.951Z,12.36
2022-10-25T20:31:24.827Z,12.37
2022-10-25T20:33:53.719Z,12.36
2022-10-25T20:36:24.044Z,12.30
2022-10-25T20:38:52.180Z,12.28
2022-10-25T20:41:22.677Z,12.32
2022-10-25T20:43:52.778Z,12.32
2022-10-25T20:46:22.366Z,12.32
2022-10-25T20:48:51.837Z,12.34
2022-10-25T20:51:20.310Z,12.30
2022-10-25T20:53:49.892Z,12.31
2022-10-25T20:56:19.432Z,12.25
2022-10-25T20:58:47.914Z,12.24
2022-10-25T21:01:16.901Z,12.15
2022-10-25T21:03:45.015Z,12.16
2022-10-25T21:06:14.505Z,12.17
2022-10-25T21:08:42.759Z,12.16
2022-10-25T21:11:13.885Z,12.25
2022-10-25T21:13:41.891Z,12.30
2022-10-25T21:16:11.671Z,12.33
2022-10-25T21:18:39.888Z,12.35
2022-10-25T21:21:09.875Z,12.38
2022-10-25T21:23:38.270Z,12.41
2022-10-25T21:26:07.991Z,12.42
2022-10-25T21:28:39.233Z,12.47
2022-10-25T21:31:09.403Z,12.44
2022-10-25T21:33:37.247Z,12.46
2022-10-25T21:36:07.460Z,12.46
2022-10-25T21:38:35.467Z,12.46
2022-10-25T21:41:08.189Z,12.47
2022-10-25T21:43:38.023Z,12.41
2022-10-25T21:46:07.117Z,12.33
2022-10-25T21:48:36.115Z,12.34
2022-10-25T21:51:03.805Z,12.30
2022-10-25T21:53:31.910Z,12.31
2022-10-25T21:56:07.871Z,12.37
2022-10-25T21:58:37.218Z,12.42
2022-10-25T22:01:08.246Z,12.42
2022-10-25T22:03:36.105Z,12.40
2022-10-25T22:06:05.693Z,12.40
2022-10-25T22:08:33.445Z,12.41
2022-10-25T22:11:02.902Z,12.37
2022-10-25T22:13:30.896Z,12.42
2022-10-25T22:16:02.867Z,12.38
2022-10-25T22:18:30.531Z,12.37
2022-10-25T22:21:00.165Z,12.37
2022-10-25T22:23:30.006Z,12.36
2022-10-25T22:26:01.126Z,12.33
2022-10-25T22:28:28.986Z,12.35
2022-10-25T22:31:02.378Z,12.29
2022-10-25T22:33:30.213Z,12.24
2022-10-25T22:36:02.434Z,12.28
2022-10-25T22:38:30.262Z,12.27
2022-10-25T22:40:58.981Z,12.32
2022-10-25T22:43:27.566Z,12.33
2022-10-25T22:45:55.538Z,12.22
2022-10-25T22:48:24.777Z,12.21
2022-10-25T22:50:54.028Z,12.24
2022-10-25T22:53:23.131Z,12.27
2022-10-25T22:55:58.115Z,12.26
2022-10-25T22:58:27.258Z,12.26
2022-10-25T23:03:34.166Z,12.32
2022-10-25T23:06:03.127Z,12.37
2022-10-25T23:08:31.779Z,12.35
2022-10-25T23:11:01.754Z,12.41
2022-10-25T23:13:30.061Z,12.44
2022-10-25T23:15:58.062Z,12.44
2022-10-25T23:18:26.114Z,12.40
2022-10-25T23:20:57.370Z,12.37
2022-10-25T23:23:26.483Z,12.37
2022-10-25T23:25:55.142Z,12.33
2022-10-25T23:28:23.124Z,12.36
2022-10-25T23:30:50.879Z,12.35
2022-10-25T23:33:18.469Z,12.35
2022-10-25T23:35:46.278Z,12.34
2022-10-25T23:38:15.520Z,12.35
2022-10-25T23:40:47.838Z,12.37
2022-10-25T23:43:16.162Z,12.35
2022-10-25T23:45:43.908Z,12.37
2022-10-25T23:48:11.570Z,12.40
2022-10-25T23:50:39.741Z,12.37
2022-10-25T23:53:08.487Z,12.37
2022-10-25T23:55:38.584Z,12.41
2022-10-25T23:58:06.430Z,12.38
